Morning Charlotte — 3EMA2 — position and weather

sailwx.info

Track history (hours):
 
Tides and Currents Weather Stations Pressure Air Temp Water Temp Dewpoint Dewpoint Depression Visibility Wind Speed Wind Dir Waves Ship Positions

Morning Charlotte

Last reported at 2016-Aug-11 13:14 UTC. Time now 2016-Aug-27 04:34 UTC.
Position N 37°07' E 126°35'.
Warning: this ship's position is 15 days out of date.

Length 200 m; draft 8.7 m.

Type: Cargo ship. MMSI: 357275000.

Date/timePositionNaut miles runAvg speedWind from/ knotsBaromVisibWave heightAir tempDewpointWater temp
2016-Aug-11 13:14N 37°07' E 126°35'14 0.6
2016-Aug-10 12:26N 36°59' E 126°50'24 2.6
2016-Aug-10 03:11N 37°06' E 126°20'8113.6
2016-Aug-09 21:15N 37°13' E 124°39'3519.9
2016-Aug-09 19:30N 37°30' E 124°01'2019.7
2016-Aug-09 18:27N 37°41' E 123°39'1719.2
2016-Aug-09 17:33N 37°50' E 123°20'1918.7
2016-Aug-09 16:33N 38°00' E 122°60'1818.6
2016-Aug-09 15:33N 38°06' E 122°38'1918.8
2016-Aug-09 14:33N 38°12' E 122°15'2219.2
2016-Aug-09 13:23N 38°18' E 121°48'1619.0
2016-Aug-09 12:33N 38°23' E 121°29'1414.2
2016-Aug-09 11:33N 38°27' E 121°11'1111.1
2016-Aug-09 10:34N 38°31' E 120°58'1110.6
2016-Aug-09 09:34N 38°37' E 120°47'1313.3
2016-Aug-09 08:33N 38°43' E 120°32'2017.5
2016-Aug-09 07:26N 38°47' E 120°07'3418.0
2016-Aug-09 05:33N 38°46' E 119°24'6715.9
2016-Aug-09 01:20N 38°57' E 117°59'911.0
2016-Aug-09 00:34N 38°58' E 117°48'1 1.0
2016-Aug-08 23:23N 38°59' E 117°47'0 0.0
2016-Aug-08 22:30N 38°59' E 117°47'0 0.0
2016-Aug-08 21:30N 38°59' E 117°47'0 0.0
2016-Aug-08 20:33N 38°59' E 117°47'0 0.0
2016-Aug-08 19:33N 38°59' E 117°47'0 0.0
2016-Aug-08 18:32N 38°59' E 117°47'0 0.0
2016-Aug-08 17:33N 38°59' E 117°47'0 0.0
2016-Aug-08 16:31N 38°59' E 117°47'0 0.0
2016-Aug-08 15:33N 38°59' E 117°47'0 0.0
2016-Aug-08 14:33N 38°59' E 117°47'0 0.0
2016-Aug-08 13:33N 38°59' E 117°47'0 0.0
2016-Aug-08 12:32N 38°59' E 117°47'0 0.0
2016-Aug-08 11:33N 38°59' E 117°47'0 0.0
2016-Aug-08 10:31N 38°59' E 117°47'0 0.0
2016-Aug-08 09:32N 38°59' E 117°47'0 0.0
2016-Aug-08 08:32N 38°59' E 117°47'0 0.0
2016-Aug-08 07:33N 38°59' E 117°47'0 0.0
2016-Aug-08 06:29N 38°59' E 117°47'0 0.0
2016-Aug-08 05:33N 38°59' E 117°47'0 0.0
2016-Aug-08 04:32N 38°59' E 117°47'0 0.0
2016-Aug-08 03:33N 38°59' E 117°47'0 0.0
2016-Aug-08 02:33N 38°59' E 117°47'0 0.0
2016-Aug-08 01:30N 38°59' E 117°47'3 3.4
2016-Aug-08 00:33N 38°58' E 117°51'1110.2
2016-Aug-07 23:28N 38°56' E 118°05'110 4.0
2016-Aug-06 20:09N 38°44' E 120°25'915.3
2016-Aug-06 19:34N 38°41' E 120°36'1212.0
2016-Aug-06 18:32N 38°37' E 120°51'1010.5
2016-Aug-06 17:33N 38°32' E 121°03'1110.9
2016-Aug-06 16:33N 38°27' E 121°15'1212.2
2016-Aug-06 15:33N 38°21' E 121°29'1615.9
2016-Aug-06 14:32N 38°17' E 121°49'1616.0
2016-Aug-06 13:33N 38°13' E 122°08'1616.2
2016-Aug-06 12:34N 38°09' E 122°28'1716.6
2016-Aug-06 11:34N 38°04' E 122°48'1817.0
2016-Aug-06 10:30N 37°56' E 123°08'1617.0
2016-Aug-06 09:34N 37°47' E 123°26'1616.4
2016-Aug-06 08:34N 37°38' E 123°43'5513.8
2016-Aug-06 04:33N 36°45' E 124°01'1615.8
2016-Aug-06 03:34N 36°29' E 123°57'68017.0
2016-Aug-04 11:32N 25°29' E 120°48'1919.5
2016-Aug-04 10:33N 25°15' E 120°34'2019.6
2016-Aug-04 09:33N 24°57' E 120°23'5618.8
2016-Aug-04 06:33N 24°04' E 120°03'7819.0
2016-Aug-04 02:27N 22°47' E 119°48'  
Track history (hours):
 
Tides and Currents Weather Stations Pressure Air Temp Water Temp Dewpoint Dewpoint Depression Visibility Wind Speed Wind Dir Waves Ship Positions

Morning Charlotte

Last reported at 2016-Aug-11 13:14 UTC. Time now 2016-Aug-27 04:34 UTC.
Position N 37°07' E 126°35'.
Warning: this ship's position is 15 days out of date.

Length 200 m; draft 8.7 m.

Type: Cargo ship. MMSI: 357275000.

Date/timePositionNaut miles runAvg speedWind from/ knotsBaromVisibWave heightAir tempDewpointWater temp
2016-Aug-11 13:14N 37°07' E 126°35'14 0.6
2016-Aug-10 12:26N 36°59' E 126°50'24 2.6
2016-Aug-10 03:11N 37°06' E 126°20'8113.6
2016-Aug-09 21:15N 37°13' E 124°39'3519.9
2016-Aug-09 19:30N 37°30' E 124°01'2019.7
2016-Aug-09 18:27N 37°41' E 123°39'1719.2
2016-Aug-09 17:33N 37°50' E 123°20'1918.7
2016-Aug-09 16:33N 38°00' E 122°60'1818.6
2016-Aug-09 15:33N 38°06' E 122°38'1918.8
2016-Aug-09 14:33N 38°12' E 122°15'2219.2
2016-Aug-09 13:23N 38°18' E 121°48'1619.0
2016-Aug-09 12:33N 38°23' E 121°29'1414.2
2016-Aug-09 11:33N 38°27' E 121°11'1111.1
2016-Aug-09 10:34N 38°31' E 120°58'1110.6
2016-Aug-09 09:34N 38°37' E 120°47'1313.3
2016-Aug-09 08:33N 38°43' E 120°32'2017.5
2016-Aug-09 07:26N 38°47' E 120°07'3418.0
2016-Aug-09 05:33N 38°46' E 119°24'6715.9
2016-Aug-09 01:20N 38°57' E 117°59'911.0
2016-Aug-09 00:34N 38°58' E 117°48'1 1.0
2016-Aug-08 23:23N 38°59' E 117°47'0 0.0
2016-Aug-08 22:30N 38°59' E 117°47'0 0.0
2016-Aug-08 21:30N 38°59' E 117°47'0 0.0
2016-Aug-08 20:33N 38°59' E 117°47'0 0.0
2016-Aug-08 19:33N 38°59' E 117°47'0 0.0
2016-Aug-08 18:32N 38°59' E 117°47'0 0.0
2016-Aug-08 17:33N 38°59' E 117°47'0 0.0
2016-Aug-08 16:31N 38°59' E 117°47'0 0.0
2016-Aug-08 15:33N 38°59' E 117°47'0 0.0
2016-Aug-08 14:33N 38°59' E 117°47'0 0.0
2016-Aug-08 13:33N 38°59' E 117°47'0 0.0
2016-Aug-08 12:32N 38°59' E 117°47'0 0.0
2016-Aug-08 11:33N 38°59' E 117°47'0 0.0
2016-Aug-08 10:31N 38°59' E 117°47'0 0.0
2016-Aug-08 09:32N 38°59' E 117°47'0 0.0
2016-Aug-08 08:32N 38°59' E 117°47'0 0.0
2016-Aug-08 07:33N 38°59' E 117°47'0 0.0
2016-Aug-08 06:29N 38°59' E 117°47'0 0.0
2016-Aug-08 05:33N 38°59' E 117°47'0 0.0
2016-Aug-08 04:32N 38°59' E 117°47'0 0.0
2016-Aug-08 03:33N 38°59' E 117°47'0 0.0
2016-Aug-08 02:33N 38°59' E 117°47'0 0.0
2016-Aug-08 01:30N 38°59' E 117°47'3 3.4
2016-Aug-08 00:33N 38°58' E 117°51'1110.2
2016-Aug-07 23:28N 38°56' E 118°05'110 4.0
2016-Aug-06 20:09N 38°44' E 120°25'915.3
2016-Aug-06 19:34N 38°41' E 120°36'1212.0
2016-Aug-06 18:32N 38°37' E 120°51'1010.5
2016-Aug-06 17:33N 38°32' E 121°03'1110.9
2016-Aug-06 16:33N 38°27' E 121°15'1212.2
2016-Aug-06 15:33N 38°21' E 121°29'1615.9
2016-Aug-06 14:32N 38°17' E 121°49'1616.0
2016-Aug-06 13:33N 38°13' E 122°08'1616.2
2016-Aug-06 12:34N 38°09' E 122°28'1716.6
2016-Aug-06 11:34N 38°04' E 122°48'1817.0
2016-Aug-06 10:30N 37°56' E 123°08'1617.0
2016-Aug-06 09:34N 37°47' E 123°26'1616.4
2016-Aug-06 08:34N 37°38' E 123°43'5513.8
2016-Aug-06 04:33N 36°45' E 124°01'1615.8
2016-Aug-06 03:34N 36°29' E 123°57'68017.0
2016-Aug-04 11:32N 25°29' E 120°48'1919.5
2016-Aug-04 10:33N 25°15' E 120°34'2019.6
2016-Aug-04 09:33N 24°57' E 120°23'5618.8
2016-Aug-04 06:33N 24°04' E 120°03'7819.0
2016-Aug-04 02:27N 22°47' E 119°48'  

Dump ship's entire track history